메인 페이지
METAR-TAF:

METAR-TAF

공항 :

제주국제공항

제주, 대한민국

위도: 33-30N, 경도: 126-30E, 고도: 36m

현재 날씨관측

예보는 15분 전, 06:00시(UTC)에 발표되었습니다.
서북서6kt풍과 북북서풍을 오가는
온도 18°C
습도 56%
기압 1013 hPa
시정 10km 이상
1500m 미만 상공 구름 및 적란운 없음

METAR: RKPC 160600Z 29006KT 260V340 CAVOK 18/09 Q1013 NOSIG

시각: 15:15 (06:15 UTC)

예보

예보는 1 시간 15분 전, 05:00시(UTC)에 발표되었습니다.
예보 대상 시간: 16일 06시부터 17일 12시까지 (UTC)
북서7kt
시정 10km 이상
1500m 미만 상공 구름 및 적란운 없음
전환 중
16일 08시부터 16일 09시까지 (UTC)
10kt
전환 중
16일 16시부터 16일 18시까지 (UTC)
남남서5kt
전환 중
16일 20시부터 16일 21시까지 (UTC)
8kt
전환 중
17일 10시부터 17일 11시까지 (UTC)
5kt

TAF: RKPC 160500Z 1606/1712 32007KT CAVOK TN14/1620Z TX23/1704Z BECMG 1608/1609 26010KT BECMG 1616/1618 20005KT BECMG 1620/1621 27008KT BECMG 1710/1711 17005KT

4,000개 이상의 공항 관측 자료 및 예보 (METAR 및 TAF 보고).

지도상에서 검색 가능한 기상관측소가 노란 점과 빨간 점으로 표시되어 있습니다.

기상관측소 명을 보려면 표시 위로 마우스를 이동하세요.

날씨 관측과 예보를 보려면 클릭하세요.

지도 변경 : 확대하려면 엑스 표시가 있는 녹색 버튼, 축소하려면 빼기 표시가 있는 녹색 버튼, 다음 페이지의 지도를 보려면 녹색 화살표를 클릭하세요.


METAR-TAF: